createdAt,value
2019-05-15T00:00:39.023Z,7.05
2019-05-15T00:01:40.997Z,7.03
2019-05-15T00:02:39.058Z,7.06
2019-05-15T00:03:39.368Z,7.07
2019-05-15T00:04:38.987Z,7.03
2019-05-15T00:05:39.462Z,7.03
2019-05-15T00:06:39.203Z,6.96
2019-05-15T00:07:39.456Z,6.92
2019-05-15T00:08:38.937Z,6.82
2019-05-15T00:09:41.803Z,6.82
2019-05-15T00:10:39.470Z,6.78
2019-05-15T00:11:39.150Z,6.75
2019-05-15T00:12:39.697Z,6.79
2019-05-15T00:13:39.216Z,6.70
2019-05-15T00:14:38.972Z,6.66
2019-05-15T00:15:40.081Z,6.67
2019-05-15T00:16:38.866Z,6.67
2019-05-15T00:17:39.641Z,6.74
2019-05-15T00:18:39.257Z,6.64
2019-05-15T00:19:39.010Z,6.69
2019-05-15T00:20:39.576Z,6.70
2019-05-15T00:21:38.779Z,6.72
2019-05-15T00:22:39.203Z,6.72
2019-05-15T00:23:39.069Z,6.70
2019-05-15T00:24:38.749Z,6.77
2019-05-15T00:25:39.619Z,6.75
2019-05-15T00:26:38.726Z,6.70
2019-05-15T00:27:39.042Z,6.69
2019-05-15T00:28:39.063Z,6.72
2019-05-15T00:29:38.699Z,6.72
2019-05-15T00:30:39.089Z,6.66
2019-05-15T00:31:38.952Z,6.66
2019-05-15T00:32:39.473Z,6.67
2019-05-15T00:33:39.317Z,6.69
2019-05-15T00:34:38.641Z,6.67
2019-05-15T00:35:39.552Z,6.62
2019-05-15T00:36:38.615Z,6.74
2019-05-15T00:37:39.109Z,6.70
2019-05-15T00:38:39.155Z,6.84
2019-05-15T00:39:39.161Z,6.78
2019-05-15T00:40:39.356Z,6.81
2019-05-15T00:41:50.279Z,6.78
2019-05-15T00:42:39.540Z,6.77
2019-05-15T00:43:38.829Z,6.75
2019-05-15T00:44:38.803Z,6.69
2019-05-15T00:45:38.888Z,6.67
2019-05-15T00:46:38.560Z,6.67
2019-05-15T00:47:39.642Z,6.78
2019-05-15T00:48:39.779Z,6.75
2019-05-15T00:49:38.461Z,6.72
2019-05-15T00:50:39.300Z,6.72
2019-05-15T00:51:39.026Z,6.67
2019-05-15T00:52:39.065Z,6.72
2019-05-15T00:53:39.018Z,6.78
2019-05-15T00:54:38.900Z,6.77
2019-05-15T00:55:38.400Z,6.72
2019-05-15T00:56:39.151Z,6.66
2019-05-15T00:57:39.346Z,6.60
2019-05-15T00:58:40.211Z,6.64
2019-05-15T00:59:38.990Z,6.64
2019-05-15T01:00:38.340Z,6.70
2019-05-15T01:01:38.366Z,6.62
2019-05-15T01:02:38.989Z,6.63
2019-05-15T01:03:38.932Z,6.52
2019-05-15T01:04:38.899Z,6.45
2019-05-15T01:05:38.761Z,6.45
2019-05-15T01:06:38.980Z,6.38
2019-05-15T01:07:39.301Z,6.35
2019-05-15T01:08:39.373Z,6.45
2019-05-15T01:09:38.583Z,6.41
2019-05-15T01:10:38.735Z,6.48
2019-05-15T01:11:38.364Z,6.51
2019-05-15T01:12:38.227Z,6.44
2019-05-15T01:13:38.860Z,6.48
2019-05-15T01:14:38.606Z,6.46
2019-05-15T01:15:38.749Z,6.33
2019-05-15T01:16:38.450Z,6.35
2019-05-15T01:17:39.010Z,6.30
2019-05-15T01:18:38.584Z,6.36
2019-05-15T01:19:38.129Z,6.35
2019-05-15T01:20:39.108Z,6.26
2019-05-15T01:21:38.489Z,6.26
2019-05-15T01:22:39.400Z,6.24
2019-05-15T01:23:39.082Z,6.22
2019-05-15T01:24:38.907Z,6.19
2019-05-15T01:25:38.922Z,6.14
2019-05-15T01:26:38.493Z,6.16
2019-05-15T01:27:38.855Z,6.24
2019-05-15T01:28:38.554Z,6.28
2019-05-15T01:29:44.478Z,6.30
2019-05-15T01:30:39.536Z,6.41
2019-05-15T01:31:38.174Z,6.22
2019-05-15T01:32:39.521Z,6.39
2019-05-15T01:33:39.080Z,6.24
2019-05-15T01:34:38.451Z,6.35
2019-05-15T01:35:38.538Z,6.16
2019-05-15T01:36:38.368Z,6.24
2019-05-15T01:37:39.050Z,6.33
2019-05-15T01:38:38.819Z,6.22
2019-05-15T01:39:38.510Z,6.26
2019-05-15T01:40:38.616Z,6.19
2019-05-15T01:41:38.628Z,6.17
2019-05-15T01:42:38.631Z,6.12
2019-05-15T01:43:38.210Z,6.14
2019-05-15T01:44:38.972Z,6.14
2019-05-15T01:45:39.362Z,6.12
2019-05-15T01:46:39.344Z,6.14
2019-05-15T01:47:38.910Z,6.09
2019-05-15T01:48:38.769Z,6.01
2019-05-15T01:49:38.370Z,6.01
2019-05-15T01:50:38.690Z,5.99
2019-05-15T01:51:38.550Z,6.02
2019-05-15T01:52:39.019Z,5.98
2019-05-15T01:53:38.528Z,5.98
2019-05-15T01:54:38.353Z,5.91
2019-05-15T01:55:39.413Z,5.98
2019-05-15T01:56:38.746Z,5.94
2019-05-15T01:57:38.351Z,6.01
2019-05-15T01:58:38.240Z,5.99
2019-05-15T01:59:40.173Z,5.91
2019-05-15T02:00:39.369Z,6.04
2019-05-15T02:01:39.266Z,5.98
2019-05-15T02:02:39.090Z,6.02
2019-05-15T02:03:38.622Z,5.93
2019-05-15T02:04:39.292Z,5.87
2019-05-15T02:05:38.988Z,5.87
2019-05-15T02:06:39.141Z,5.82
2019-05-15T02:07:39.132Z,5.73
2019-05-15T02:08:39.277Z,5.75
2019-05-15T02:09:38.583Z,5.66
2019-05-15T02:10:39.112Z,5.66
2019-05-15T02:11:38.261Z,5.66
2019-05-15T02:12:38.715Z,5.68
2019-05-15T02:13:38.886Z,5.65
2019-05-15T02:14:39.168Z,5.68
2019-05-15T02:15:39.451Z,5.68
2019-05-15T02:16:39.324Z,5.69
2019-05-15T02:17:39.333Z,5.71
2019-05-15T02:18:39.070Z,5.64
2019-05-15T02:19:39.207Z,5.66
2019-05-15T02:20:38.923Z,5.72
2019-05-15T02:21:38.039Z,5.61
2019-05-15T02:22:42.088Z,5.64
2019-05-15T02:23:38.807Z,5.71
2019-05-15T02:24:39.047Z,5.65
2019-05-15T02:25:38.788Z,5.65
2019-05-15T02:26:38.819Z,5.69
2019-05-15T02:27:39.377Z,5.75
2019-05-15T02:28:38.377Z,5.79
2019-05-15T02:29:37.841Z,5.82
2019-05-15T02:30:40.551Z,5.76
2019-05-15T02:31:39.197Z,5.73
2019-05-15T02:32:39.595Z,5.66
2019-05-15T02:33:39.889Z,5.65
2019-05-15T02:34:39.463Z,5.75
2019-05-15T02:35:39.224Z,5.65
2019-05-15T02:36:40.088Z,5.75
2019-05-15T02:37:41.098Z,5.72
2019-05-15T02:38:40.964Z,5.73
2019-05-15T02:39:38.933Z,5.72
2019-05-15T02:40:40.327Z,5.65
2019-05-15T02:41:39.617Z,5.65
2019-05-15T02:42:40.023Z,5.61
2019-05-15T02:43:39.074Z,5.61
2019-05-15T02:44:40.096Z,5.57
2019-05-15T02:45:41.724Z,5.64
2019-05-15T02:46:39.162Z,5.64
2019-05-15T02:47:39.382Z,5.66
2019-05-15T02:48:40.600Z,5.56
2019-05-15T02:49:39.628Z,5.48
2019-05-15T02:50:39.195Z,5.50
2019-05-15T02:51:39.938Z,5.51
2019-05-15T02:52:39.081Z,5.44
2019-05-15T02:53:39.631Z,5.44
2019-05-15T02:54:39.729Z,5.46
2019-05-15T02:55:39.819Z,5.47
2019-05-15T02:56:39.203Z,5.47
2019-05-15T02:57:39.428Z,5.53
2019-05-15T02:58:39.676Z,5.43
2019-05-15T02:59:39.611Z,5.51
2019-05-15T03:00:46.942Z,5.50
2019-05-15T03:01:40.506Z,5.56
2019-05-15T03:02:40.713Z,5.54
2019-05-15T03:03:38.679Z,5.54
2019-05-15T03:04:39.945Z,5.56
2019-05-15T03:05:40.249Z,5.51
2019-05-15T03:06:38.932Z,5.50
2019-05-15T03:07:39.716Z,5.48
2019-05-15T03:08:39.555Z,5.50
2019-05-15T03:09:39.665Z,5.47
2019-05-15T03:10:39.958Z,5.43
2019-05-15T03:11:40.442Z,5.47
2019-05-15T03:12:40.179Z,5.41
2019-05-15T03:13:39.147Z,5.51
2019-05-15T03:14:39.602Z,5.46
2019-05-15T03:15:39.959Z,5.54
2019-05-15T03:16:39.428Z,5.50
2019-05-15T03:17:40.530Z,5.54
2019-05-15T03:18:39.599Z,5.48
2019-05-15T03:19:39.349Z,5.53
2019-05-15T03:20:38.862Z,5.51
2019-05-15T03:21:38.844Z,5.46
2019-05-15T03:22:39.667Z,5.46
2019-05-15T03:23:40.044Z,5.48
2019-05-15T03:24:39.626Z,5.53
2019-05-15T03:25:39.885Z,5.50
2019-05-15T03:26:39.399Z,5.56
2019-05-15T03:27:39.532Z,5.53
2019-05-15T03:28:39.182Z,5.66
2019-05-15T03:29:40.005Z,5.65
2019-05-15T03:31:07.043Z,5.56
2019-05-15T03:31:57.648Z,5.53
2019-05-15T03:32:50.713Z,5.57
2019-05-15T03:33:44.786Z,5.51
2019-05-15T03:34:46.227Z,5.61
2019-05-15T03:35:43.057Z,5.54
2019-05-15T03:36:37.633Z,5.64
2019-05-15T03:37:39.524Z,5.66
2019-05-15T03:38:39.131Z,5.65
2019-05-15T03:39:39.193Z,5.66
2019-05-15T03:40:39.504Z,5.59
2019-05-15T03:41:39.285Z,5.62
2019-05-15T03:42:39.361Z,5.54
2019-05-15T03:43:39.363Z,5.59
2019-05-15T03:44:39.098Z,5.53
2019-05-15T03:45:40.001Z,5.64
2019-05-15T03:46:39.607Z,5.64
2019-05-15T03:47:39.724Z,5.64
2019-05-15T03:48:39.787Z,5.66
2019-05-15T03:49:39.461Z,5.66
2019-05-15T03:50:39.712Z,5.65
2019-05-15T03:51:40.078Z,5.68
2019-05-15T03:52:39.489Z,5.68
2019-05-15T03:53:39.570Z,5.61
2019-05-15T03:54:39.283Z,5.61
2019-05-15T03:55:36.432Z,5.53
2019-05-15T03:56:39.261Z,5.62
2019-05-15T03:57:39.770Z,5.54
2019-05-15T03:58:39.716Z,5.57
2019-05-15T03:59:39.658Z,5.47
2019-05-15T04:00:39.246Z,5.51
2019-05-15T04:01:42.908Z,5.53
2019-05-15T04:02:39.560Z,5.47
2019-05-15T04:03:39.021Z,5.47
2019-05-15T04:04:38.903Z,5.41
2019-05-15T04:05:38.885Z,5.38
2019-05-15T04:06:39.103Z,5.46
2019-05-15T04:07:39.351Z,5.44
2019-05-15T04:08:39.121Z,5.47
2019-05-15T04:09:38.722Z,5.46
2019-05-15T04:10:39.486Z,5.38
2019-05-15T04:11:38.805Z,5.44
2019-05-15T04:12:39.839Z,5.47
2019-05-15T04:13:39.211Z,5.43
2019-05-15T04:14:39.264Z,5.41
2019-05-15T04:15:39.082Z,5.39
2019-05-15T04:16:39.150Z,5.39
2019-05-15T04:17:36.196Z,5.44
2019-05-15T04:18:39.361Z,5.51
2019-05-15T04:19:38.853Z,5.53
2019-05-15T04:20:36.155Z,5.57
2019-05-15T04:21:41.219Z,5.56
2019-05-15T04:22:40.016Z,5.50
2019-05-15T04:23:38.826Z,5.53
2019-05-15T04:24:39.217Z,5.51
2019-05-15T04:25:38.875Z,5.51
2019-05-15T04:26:39.202Z,5.59
2019-05-15T04:27:38.806Z,5.57
2019-05-15T04:28:36.072Z,5.57
2019-05-15T04:29:39.504Z,5.65
2019-05-15T04:30:43.212Z,5.65
2019-05-15T04:32:20.067Z,5.71
2019-05-15T04:33:19.849Z,5.69
2019-05-15T04:35:00.339Z,5.76
2019-05-15T04:36:00.330Z,5.87
2019-05-15T04:37:00.321Z,5.73
2019-05-15T04:38:00.314Z,5.82
2019-05-15T04:39:00.292Z,5.86
2019-05-15T04:40:00.286Z,5.87
2019-05-15T04:41:00.265Z,5.98
2019-05-15T04:42:00.267Z,5.83
2019-05-15T04:43:00.249Z,5.83
2019-05-15T04:44:00.272Z,5.87
2019-05-15T04:45:00.234Z,5.86
2019-05-15T04:46:02.988Z,5.83
2019-05-15T04:47:00.236Z,5.90
2019-05-15T04:48:00.233Z,5.99
2019-05-15T04:49:00.181Z,5.98
2019-05-15T04:50:00.173Z,6.01
2019-05-15T04:51:00.177Z,5.99
2019-05-15T04:52:03.281Z,5.99
2019-05-15T04:53:00.145Z,5.99
2019-05-15T04:54:00.138Z,6.05
2019-05-15T04:55:00.128Z,6.04
2019-05-15T04:56:00.101Z,6.11
2019-05-15T04:57:00.090Z,6.17
2019-05-15T04:58:00.076Z,6.09
2019-05-15T04:59:00.304Z,6.16
2019-05-15T05:00:00.069Z,6.24
2019-05-15T05:01:00.305Z,6.27
2019-05-15T05:02:16.247Z,6.24
2019-05-15T05:03:01.023Z,6.24
2019-05-15T05:04:00.080Z,6.26
2019-05-15T05:05:00.005Z,6.27
2019-05-15T05:05:59.988Z,6.28
2019-05-15T05:06:59.981Z,6.27
2019-05-15T05:07:59.965Z,6.36
2019-05-15T05:08:59.959Z,6.33
2019-05-15T05:09:59.940Z,6.38
2019-05-15T05:10:59.934Z,6.44
2019-05-15T05:11:59.928Z,6.42
2019-05-15T05:12:59.974Z,6.44
2019-05-15T05:13:59.898Z,6.48
2019-05-15T05:14:59.890Z,6.51
2019-05-15T05:15:59.877Z,6.36
2019-05-15T05:16:59.899Z,6.41
2019-05-15T05:17:59.849Z,6.42
2019-05-15T05:18:59.856Z,6.49
2019-05-15T05:19:59.827Z,6.52
2019-05-15T05:20:59.823Z,6.45
2019-05-15T05:21:59.807Z,6.49
2019-05-15T05:22:59.805Z,6.54
2019-05-15T05:23:59.787Z,6.59
2019-05-15T05:24:59.775Z,6.64
2019-05-15T05:25:59.768Z,6.62
2019-05-15T05:26:59.748Z,6.72
2019-05-15T05:27:59.747Z,6.69
2019-05-15T05:29:01.315Z,6.75
2019-05-15T05:29:59.719Z,6.79
2019-05-15T05:30:59.758Z,6.79
2019-05-15T05:31:59.706Z,6.78
2019-05-15T05:32:59.686Z,6.78
2019-05-15T05:33:59.674Z,6.84
2019-05-15T05:34:59.669Z,6.89
2019-05-15T05:35:59.658Z,6.89
2019-05-15T05:36:59.642Z,6.97
2019-05-15T05:37:59.638Z,6.96
2019-05-15T05:38:59.617Z,6.96
2019-05-15T05:39:59.698Z,7.07
2019-05-15T05:40:59.593Z,7.00
2019-05-15T05:41:59.651Z,6.99
2019-05-15T05:42:59.696Z,7.05
2019-05-15T05:43:59.561Z,7.06
2019-05-15T05:44:59.553Z,6.93
2019-05-15T05:45:59.535Z,6.99
2019-05-15T05:46:59.575Z,7.05
2019-05-15T05:47:59.527Z,6.87
2019-05-15T05:48:59.559Z,6.97
2019-05-15T05:49:59.499Z,7.02
2019-05-15T05:50:59.502Z,6.99
2019-05-15T05:51:59.478Z,7.02
2019-05-15T05:52:59.466Z,7.05
2019-05-15T05:53:59.473Z,7.03
2019-05-15T05:54:59.460Z,7.10
2019-05-15T05:55:59.429Z,7.17
2019-05-15T05:56:59.432Z,7.18
2019-05-15T05:57:59.426Z,7.18
2019-05-15T05:58:59.394Z,7.18
2019-05-15T05:59:59.403Z,7.20
2019-05-15T06:00:59.412Z,7.32
2019-05-15T06:01:59.415Z,7.29
2019-05-15T06:02:59.358Z,7.28
2019-05-15T06:03:59.340Z,7.28
2019-05-15T06:04:59.353Z,7.35
2019-05-15T06:05:59.349Z,7.35
2019-05-15T06:07:07.056Z,7.28
2019-05-15T06:08:00.301Z,7.38
2019-05-15T06:08:59.334Z,7.47
2019-05-15T06:09:59.328Z,7.43
2019-05-15T06:10:59.397Z,7.48
2019-05-15T06:11:59.279Z,7.50
2019-05-15T06:12:59.252Z,7.50
2019-05-15T06:13:59.235Z,7.60
2019-05-15T06:14:59.224Z,7.63
2019-05-15T06:15:59.322Z,7.70
2019-05-15T06:16:59.202Z,7.67
2019-05-15T06:17:59.195Z,7.77
2019-05-15T06:18:59.195Z,7.87
2019-05-15T06:19:59.216Z,7.87
2019-05-15T06:20:59.159Z,7.90
2019-05-15T06:22:00.998Z,7.94
2019-05-15T06:22:59.154Z,7.90
2019-05-15T06:24:04.920Z,8.03
2019-05-15T06:25:04.095Z,8.00
2019-05-15T06:25:59.390Z,8.03
2019-05-15T06:26:59.098Z,8.08
2019-05-15T06:27:59.090Z,8.09
2019-05-15T06:28:59.078Z,8.16
2019-05-15T06:29:59.058Z,8.13
2019-05-15T06:31:00.785Z,8.13
2019-05-15T06:31:59.037Z,8.26
2019-05-15T06:33:08.270Z,8.31
2019-05-15T06:34:00.012Z,8.41
2019-05-15T06:34:58.996Z,8.52
2019-05-15T06:35:59.322Z,8.56
2019-05-15T06:36:58.997Z,8.64
2019-05-15T06:37:59.239Z,8.67
2019-05-15T06:38:59.173Z,8.69
2019-05-15T06:39:58.949Z,8.79
2019-05-15T06:40:58.955Z,8.95
2019-05-15T06:41:58.978Z,9.06
2019-05-15T06:42:59.465Z,9.14
2019-05-15T06:43:59.044Z,9.23
2019-05-15T06:44:59.053Z,9.46
2019-05-15T06:45:58.897Z,9.68
2019-05-15T06:46:58.925Z,9.82
2019-05-15T06:48:01.417Z,9.91
2019-05-15T06:48:58.852Z,9.87
2019-05-15T06:49:58.824Z,9.91
2019-05-15T06:50:58.830Z,9.89
2019-05-15T06:51:58.822Z,9.91
2019-05-15T06:52:58.819Z,9.84
2019-05-15T06:53:58.794Z,9.92
2019-05-15T06:54:59.374Z,9.86
2019-05-15T06:55:58.823Z,9.89
2019-05-15T06:56:58.790Z,9.87
2019-05-15T06:57:58.747Z,9.87
2019-05-15T06:58:58.737Z,9.92
2019-05-15T06:59:58.721Z,9.94
2019-05-15T07:00:59.428Z,10.01
2019-05-15T07:01:59.507Z,10.15
2019-05-15T07:02:58.711Z,10.13
2019-05-15T07:03:59.097Z,10.25
2019-05-15T07:04:58.683Z,10.40
2019-05-15T07:05:59.917Z,10.33
2019-05-15T07:06:58.653Z,10.34
2019-05-15T07:07:58.671Z,10.37
2019-05-15T07:08:58.887Z,10.37
2019-05-15T07:09:58.614Z,10.33
2019-05-15T07:10:58.605Z,10.31
2019-05-15T07:11:59.089Z,10.44
2019-05-15T07:12:58.644Z,10.31
2019-05-15T07:13:58.578Z,10.31
2019-05-15T07:14:58.590Z,10.34
2019-05-15T07:15:58.747Z,10.31
2019-05-15T07:16:59.276Z,10.23
2019-05-15T07:17:58.528Z,10.31
2019-05-15T07:18:59.027Z,10.25
2019-05-15T07:19:59.245Z,10.25
2019-05-15T07:20:58.496Z,10.38
2019-05-15T07:21:58.488Z,10.30
2019-05-15T07:22:58.765Z,10.40
2019-05-15T07:23:58.642Z,10.31
2019-05-15T07:24:58.459Z,10.31
2019-05-15T07:25:58.860Z,10.37
2019-05-15T07:26:59.174Z,10.51
2019-05-15T07:27:58.417Z,10.46
2019-05-15T07:28:59.631Z,10.60
2019-05-15T07:29:58.504Z,10.75
2019-05-15T07:30:58.506Z,10.89
2019-05-15T07:31:58.650Z,10.99
2019-05-15T07:32:58.758Z,11.11
2019-05-15T07:33:59.745Z,11.04
2019-05-15T07:34:58.340Z,11.10
2019-05-15T07:35:58.981Z,11.02
2019-05-15T07:36:59.207Z,10.96
2019-05-15T07:37:58.755Z,10.90
2019-05-15T07:38:58.297Z,10.89
2019-05-15T07:39:59.097Z,10.99
2019-05-15T07:41:03.839Z,11.04
2019-05-15T07:41:59.269Z,10.99
2019-05-15T07:42:58.749Z,10.94
2019-05-15T07:43:58.735Z,11.02
2019-05-15T07:44:58.964Z,10.97
2019-05-15T07:45:59.037Z,10.99
2019-05-15T07:46:58.483Z,11.04
2019-05-15T07:47:58.563Z,10.96
2019-05-15T07:48:58.480Z,11.07
2019-05-15T07:49:58.953Z,11.17
2019-05-15T07:50:59.390Z,11.07
2019-05-15T07:51:59.178Z,11.14
2019-05-15T07:52:59.040Z,11.08
2019-05-15T07:53:58.482Z,11.15
2019-05-15T07:54:58.425Z,11.18
2019-05-15T07:56:01.024Z,11.27
2019-05-15T07:56:58.291Z,11.32
2019-05-15T07:57:59.127Z,11.27
2019-05-15T07:58:58.641Z,11.36
2019-05-15T07:59:58.832Z,11.40
2019-05-15T08:00:58.962Z,11.27
2019-05-15T08:01:58.388Z,11.33
2019-05-15T08:02:58.645Z,11.33
2019-05-15T08:04:09.703Z,11.40
2019-05-15T08:04:59.002Z,11.40
2019-05-15T08:06:02.103Z,11.44
2019-05-15T08:06:59.355Z,11.51
2019-05-15T08:07:58.218Z,11.51
2019-05-15T08:08:59.241Z,11.57
2019-05-15T08:09:59.081Z,11.59
2019-05-15T08:10:58.060Z,11.68
2019-05-15T08:12:00.161Z,11.70
2019-05-15T08:12:58.999Z,11.77
2019-05-15T08:13:58.302Z,11.81
2019-05-15T08:14:58.377Z,11.88
2019-05-15T08:15:58.137Z,11.87
2019-05-15T08:16:59.272Z,11.97
2019-05-15T08:18:05.630Z,11.97
2019-05-15T08:18:58.843Z,11.90
2019-05-15T08:19:58.287Z,11.83
2019-05-15T08:20:58.563Z,11.88
2019-05-15T08:21:58.155Z,12.00
2019-05-15T08:22:58.362Z,12.09
2019-05-15T08:23:59.067Z,12.13
2019-05-15T08:24:59.077Z,12.28
2019-05-15T08:25:58.028Z,12.36
2019-05-15T08:26:58.199Z,12.53
2019-05-15T08:27:58.974Z,12.54
2019-05-15T08:28:58.034Z,12.60
2019-05-15T08:29:58.158Z,12.50
2019-05-15T08:30:58.536Z,12.60
2019-05-15T08:31:59.052Z,12.58
2019-05-15T08:32:58.912Z,12.60
2019-05-15T08:34:12.308Z,12.68
2019-05-15T08:34:58.760Z,12.61
2019-05-15T08:35:58.814Z,12.53
2019-05-15T08:36:59.017Z,12.54
2019-05-15T08:37:58.097Z,12.53
2019-05-15T08:38:59.150Z,12.50
2019-05-15T08:39:59.620Z,12.54
2019-05-15T08:40:59.257Z,12.57
2019-05-15T08:41:58.478Z,12.68
2019-05-15T08:43:01.766Z,12.65
2019-05-15T08:43:57.992Z,12.76
2019-05-15T08:44:58.372Z,12.76
2019-05-15T08:45:58.641Z,12.78
2019-05-15T08:46:58.862Z,12.70
2019-05-15T08:47:58.544Z,12.64
2019-05-15T08:48:58.349Z,12.65
2019-05-15T08:49:57.923Z,12.70
2019-05-15T08:50:57.861Z,12.78
2019-05-15T08:51:58.397Z,12.80
2019-05-15T08:52:57.954Z,12.85
2019-05-15T08:53:58.021Z,12.87
2019-05-15T08:54:59.050Z,12.94
2019-05-15T08:55:58.806Z,13.11
2019-05-15T08:56:59.199Z,13.03
2019-05-15T08:58:07.901Z,13.00
2019-05-15T08:58:58.413Z,13.05
2019-05-15T08:59:58.337Z,13.04
2019-05-15T09:00:58.759Z,13.05
2019-05-15T09:01:58.269Z,13.05
2019-05-15T09:02:58.177Z,13.04
2019-05-15T09:03:58.138Z,13.13
2019-05-15T09:04:58.044Z,13.18
2019-05-15T09:05:58.993Z,13.12
2019-05-15T09:07:01.008Z,13.27
2019-05-15T09:07:58.016Z,13.16
2019-05-15T09:08:58.529Z,13.22
2019-05-15T09:09:58.050Z,13.31
2019-05-15T09:10:58.697Z,13.27
2019-05-15T09:11:58.530Z,13.23
2019-05-15T09:12:58.677Z,13.27
2019-05-15T09:13:59.484Z,13.28
2019-05-15T09:14:58.230Z,13.30
2019-05-15T09:15:58.846Z,13.28
2019-05-15T09:16:58.208Z,13.15
2019-05-15T09:18:09.211Z,13.01
2019-05-15T09:18:59.159Z,13.05
2019-05-15T09:19:58.741Z,13.04
2019-05-15T09:20:59.322Z,13.25
2019-05-15T09:21:58.551Z,13.19
2019-05-15T09:22:58.292Z,13.35
2019-05-15T09:23:58.910Z,13.38
2019-05-15T09:24:58.948Z,13.46
2019-05-15T09:25:57.905Z,13.53
2019-05-15T09:26:59.370Z,13.59
2019-05-15T09:27:57.920Z,13.57
2019-05-15T09:28:58.460Z,13.71
2019-05-15T09:29:59.161Z,13.87
2019-05-15T09:30:59.131Z,14.07
2019-05-15T09:31:58.856Z,14.00
2019-05-15T09:32:58.818Z,13.92
2019-05-15T09:33:58.550Z,13.90
2019-05-15T09:34:59.179Z,14.03
2019-05-15T09:35:58.306Z,14.05
2019-05-15T09:36:59.785Z,14.12
2019-05-15T09:37:58.348Z,14.14
2019-05-15T09:38:58.507Z,14.18
2019-05-15T09:39:58.426Z,14.20
2019-05-15T09:40:58.583Z,14.20
2019-05-15T09:41:57.933Z,14.30
2019-05-15T09:42:57.848Z,14.48
2019-05-15T09:43:57.910Z,14.60
2019-05-15T09:44:58.187Z,14.55
2019-05-15T09:45:58.303Z,14.36
2019-05-15T09:46:58.427Z,14.32
2019-05-15T09:47:59.016Z,14.28
2019-05-15T09:48:59.084Z,14.28
2019-05-15T09:49:58.780Z,14.28
2019-05-15T09:50:58.694Z,14.32
2019-05-15T09:51:58.617Z,14.23
2019-05-15T09:52:58.788Z,14.18
2019-05-15T09:53:59.388Z,14.25
2019-05-15T09:54:59.147Z,14.25
2019-05-15T09:55:56.761Z,14.32
2019-05-15T09:56:58.556Z,14.35
2019-05-15T09:57:59.035Z,14.37
2019-05-15T09:58:58.203Z,14.25
2019-05-15T09:59:58.721Z,14.32
2019-05-15T10:00:56.698Z,14.32
2019-05-15T10:01:58.690Z,14.20
2019-05-15T10:02:56.681Z,14.28
2019-05-15T10:03:56.679Z,14.23
2019-05-15T10:05:05.903Z,14.23
2019-05-15T10:05:57.647Z,14.26
2019-05-15T10:06:56.631Z,14.23
2019-05-15T10:07:56.639Z,14.25
2019-05-15T10:08:56.610Z,14.20
2019-05-15T10:09:56.591Z,14.18
2019-05-15T10:10:56.588Z,14.26
2019-05-15T10:11:56.574Z,14.14
2019-05-15T10:12:59.361Z,14.20
2019-05-15T10:13:58.536Z,14.18
2019-05-15T10:14:59.032Z,14.23
2019-05-15T10:15:58.596Z,14.33
2019-05-15T10:16:58.360Z,14.33
2019-05-15T10:17:59.529Z,14.41
2019-05-15T10:18:58.187Z,14.32
2019-05-15T10:19:58.257Z,14.30
2019-05-15T10:20:58.109Z,14.35
2019-05-15T10:21:59.257Z,14.25
2019-05-15T10:22:58.876Z,14.26
2019-05-15T10:23:58.997Z,14.25
2019-05-15T10:24:58.597Z,14.20
2019-05-15T10:25:58.509Z,14.22
2019-05-15T10:26:58.029Z,14.25
2019-05-15T10:27:57.953Z,14.22
2019-05-15T10:28:58.449Z,14.15
2019-05-15T10:29:58.703Z,14.07
2019-05-15T10:30:56.364Z,14.07
2019-05-15T10:31:56.348Z,14.10
2019-05-15T10:32:56.343Z,14.05
2019-05-15T10:33:58.323Z,13.87
2019-05-15T10:34:58.478Z,13.86
2019-05-15T10:35:58.818Z,13.90
2019-05-15T10:36:58.758Z,13.92
2019-05-15T10:37:59.072Z,13.89
2019-05-15T10:38:59.041Z,13.86
2019-05-15T10:39:58.433Z,13.90
2019-05-15T10:41:08.100Z,13.96
2019-05-15T10:41:57.269Z,13.99
2019-05-15T10:42:56.226Z,14.00
2019-05-15T10:43:57.042Z,13.97
2019-05-15T10:44:58.736Z,13.97
2019-05-15T10:45:58.564Z,13.99
2019-05-15T10:46:58.345Z,13.93
2019-05-15T10:47:58.546Z,13.95
2019-05-15T10:48:58.500Z,13.93
2019-05-15T10:49:56.151Z,13.87
2019-05-15T10:51:01.363Z,13.85
2019-05-15T10:51:57.146Z,13.81
2019-05-15T10:52:56.120Z,13.86
2019-05-15T10:53:56.149Z,13.85
2019-05-15T10:54:58.079Z,13.86
2019-05-15T10:55:56.082Z,13.89
2019-05-15T10:57:00.480Z,13.89
2019-05-15T10:57:56.082Z,13.89
2019-05-15T10:58:56.070Z,13.86
2019-05-15T10:59:58.334Z,13.89
2019-05-15T11:01:00.974Z,13.87
2019-05-15T11:01:59.091Z,13.97
2019-05-15T11:02:57.952Z,14.00
2019-05-15T11:03:58.664Z,14.10
2019-05-15T11:04:57.860Z,14.08
2019-05-15T11:05:57.963Z,13.99
2019-05-15T11:06:58.003Z,13.85
2019-05-15T11:07:55.943Z,13.86
2019-05-15T11:08:58.414Z,13.86
2019-05-15T11:09:58.051Z,13.87
2019-05-15T11:10:58.381Z,13.92
2019-05-15T11:11:58.179Z,13.93
2019-05-15T11:12:58.026Z,13.93
2019-05-15T11:14:00.252Z,13.95
2019-05-15T11:14:55.877Z,13.90
2019-05-15T11:15:55.860Z,13.75
2019-05-15T11:16:55.842Z,13.85
2019-05-15T11:17:58.300Z,13.85
2019-05-15T11:18:55.817Z,13.75
2019-05-15T11:19:55.814Z,13.85
2019-05-15T11:20:55.812Z,13.83
2019-05-15T11:21:58.247Z,13.87
2019-05-15T11:22:55.782Z,13.85
2019-05-15T11:23:58.818Z,13.93
2019-05-15T11:24:55.756Z,13.92
2019-05-15T11:25:57.977Z,13.87
2019-05-15T11:26:56.401Z,13.90
2019-05-15T11:27:55.725Z,13.86
2019-05-15T11:28:58.521Z,13.89
2019-05-15T11:29:55.693Z,13.99
2019-05-15T11:30:55.686Z,14.08
2019-05-15T11:31:57.924Z,14.12
2019-05-15T11:32:55.663Z,14.15
2019-05-15T11:33:55.654Z,14.10
2019-05-15T11:34:58.107Z,14.12
2019-05-15T11:36:02.043Z,14.11
2019-05-15T11:36:59.258Z,14.05
2019-05-15T11:37:56.980Z,14.18
2019-05-15T11:38:55.621Z,14.18
2019-05-15T11:39:55.583Z,14.12
2019-05-15T11:40:55.575Z,14.14
2019-05-15T11:41:55.573Z,14.22
2019-05-15T11:42:55.566Z,14.22
2019-05-15T11:43:55.536Z,14.20
2019-05-15T11:44:55.541Z,14.18
2019-05-15T11:45:55.510Z,14.04
2019-05-15T11:46:55.531Z,14.08
2019-05-15T11:47:55.491Z,14.07
2019-05-15T11:48:55.501Z,14.10
2019-05-15T11:49:55.476Z,14.10
2019-05-15T11:50:55.471Z,14.03
2019-05-15T11:52:00.403Z,14.08
2019-05-15T11:52:58.523Z,14.23
2019-05-15T11:53:55.424Z,14.23
2019-05-15T11:54:55.412Z,14.18
2019-05-15T11:55:55.417Z,14.22
2019-05-15T11:56:55.396Z,14.20
2019-05-15T11:57:55.808Z,14.25
2019-05-15T11:58:55.370Z,14.23
2019-05-15T11:59:58.773Z,14.25
2019-05-15T12:00:55.344Z,14.28
2019-05-15T12:01:55.332Z,14.29
2019-05-15T12:02:55.327Z,14.36
2019-05-15T12:03:55.339Z,14.37
2019-05-15T12:04:55.303Z,14.36
2019-05-15T12:05:55.300Z,14.36
2019-05-15T12:06:59.682Z,14.40
2019-05-15T12:07:57.917Z,14.33
2019-05-15T12:08:55.252Z,14.37
2019-05-15T12:09:57.937Z,14.36
2019-05-15T12:10:55.257Z,14.32
2019-05-15T12:11:55.222Z,14.32
2019-05-15T12:12:55.211Z,14.32
2019-05-15T12:13:55.199Z,14.20
2019-05-15T12:14:55.182Z,14.22
2019-05-15T12:15:55.169Z,14.23
2019-05-15T12:17:10.085Z,14.29
2019-05-15T12:17:56.161Z,14.26
2019-05-15T12:18:55.149Z,14.25
2019-05-15T12:19:58.376Z,14.28
2019-05-15T12:20:58.809Z,14.29
2019-05-15T12:21:55.107Z,14.43
2019-05-15T12:22:55.120Z,14.35
2019-05-15T12:23:55.087Z,14.37
2019-05-15T12:24:55.078Z,14.50
2019-05-15T12:25:55.092Z,14.36
2019-05-15T12:26:55.048Z,14.41
2019-05-15T12:27:55.059Z,14.45
2019-05-15T12:28:55.029Z,14.53
2019-05-15T12:29:55.029Z,14.69
2019-05-15T12:30:55.034Z,14.73
2019-05-15T12:31:54.996Z,14.72
2019-05-15T12:32:54.987Z,14.92
2019-05-15T12:33:54.983Z,15.04
2019-05-15T12:34:54.968Z,15.04
2019-05-15T12:35:54.958Z,15.04
2019-05-15T12:36:58.060Z,15.15
2019-05-15T12:37:54.928Z,15.07
2019-05-15T12:38:54.943Z,15.11
2019-05-15T12:59:55.690Z,14.55
2019-05-15T13:00:54.661Z,14.60
2019-05-15T13:01:54.658Z,14.60
2019-05-15T13:02:54.663Z,14.53
2019-05-15T13:03:54.649Z,14.47
2019-05-15T13:04:54.635Z,14.50
2019-05-15T13:05:54.673Z,14.35
2019-05-15T13:07:11.631Z,14.30
2019-05-15T13:07:55.581Z,14.23
2019-05-15T13:08:54.613Z,14.22
2019-05-15T13:09:54.565Z,14.20
2019-05-15T13:10:54.548Z,14.18
2019-05-15T13:11:54.560Z,14.23
2019-05-15T13:13:01.249Z,14.15
2019-05-15T13:13:55.553Z,14.14
2019-05-15T13:14:54.505Z,14.07
2019-05-15T13:15:54.497Z,14.15
2019-05-15T13:16:54.485Z,14.07
2019-05-15T13:17:54.479Z,14.08
2019-05-15T13:18:54.495Z,14.07
2019-05-15T13:19:54.455Z,14.03
2019-05-15T13:20:56.118Z,13.96
2019-05-15T13:21:54.433Z,13.96
2019-05-15T13:22:54.417Z,14.03
2019-05-15T13:23:54.423Z,13.93
2019-05-15T13:24:54.386Z,13.95
2019-05-15T13:25:54.386Z,13.92
2019-05-15T13:26:54.372Z,13.86
2019-05-15T13:27:54.360Z,13.85